Time;durP1;ratioP1;P1;durP2;ratioP2;P2;SDS_P1;SDS_P2;PMS_P1;PMS_P2;Temp;Humidity;BMP_temperature;BMP_pressure;BME280_temperature;BME280_humidity;BME280_pressure;Samples;Min_cycle;Max_cycle;Signal;HPM_P1;HPM_P2
2023/09/10 00:00:19;;;;;;;0.45;0.20;;;;;;;19.51;75.88;100951.84;4986000;28;20459;-70
2023/09/10 00:02:44;;;;;;;0.75;0.13;;;;;;;19.52;76.04;100945.53;4988337;28;20798;-71
2023/09/10 00:05:10;;;;;;;0.50;0.20;;;;;;;19.53;75.73;100944.53;4988417;28;20053;-70
2023/09/10 00:07:35;;;;;;;0.40;0.20;;;;;;;19.47;76.05;100939.16;4986375;28;20038;-69
2023/09/10 00:10:01;;;;;;;0.20;0.10;;;;;;;19.34;76.68;100941.72;4985965;28;20077;-70
2023/09/10 00:12:26;;;;;;;0.40;0.10;;;;;;;19.18;77.96;100937.50;4987895;28;20127;-71
2023/09/10 00:14:52;;;;;;;0.30;0.20;;;;;;;19.09;78.54;100941.28;4987021;28;20483;-70
2023/09/10 00:17:17;;;;;;;0.88;0.30;;;;;;;19.07;78.18;100945.91;4986849;28;20562;-70
2023/09/10 00:19:43;;;;;;;1.85;0.20;;;;;;;19.06;78.52;100945.09;4989471;28;20038;-71
2023/09/10 00:22:08;;;;;;;0.57;0.20;;;;;;;19.07;78.07;100946.75;4987361;28;20052;-69
2023/09/10 00:24:34;;;;;;;0.35;0.13;;;;;;;19.06;78.64;100944.28;4985068;28;20034;-69
2023/09/10 00:27:00;;;;;;;1.40;0.10;;;;;;;19.00;78.88;100937.13;4984791;28;20042;-71
2023/09/10 00:29:26;;;;;;;0.25;0.10;;;;;;;18.93;79.52;100938.88;4987311;28;20030;-71
2023/09/10 00:31:51;;;;;;;0.20;0.10;;;;;;;18.90;79.48;100934.81;4990375;28;20037;-70
2023/09/10 00:34:17;;;;;;;0.95;0.38;;;;;;;18.88;79.41;100929.72;4983569;28;20041;-70
2023/09/10 00:36:43;;;;;;;0.73;0.20;;;;;;;18.87;79.32;100928.06;4983943;28;20496;-70
2023/09/10 00:39:08;;;;;;;9.43;0.80;;;;;;;18.91;79.03;100928.50;4984074;28;20462;-70
2023/09/10 00:41:34;;;;;;;2.90;0.90;;;;;;;18.93;78.59;100934.41;4982193;28;20065;-70
2023/09/10 00:44:00;;;;;;;7.15;1.80;;;;;;;19.08;77.33;100934.34;4985822;28;20065;-70
2023/09/10 00:46:25;;;;;;;7.47;2.00;;;;;;;19.31;75.98;100928.88;4986836;28;20028;-70
2023/09/10 00:48:52;;;;;;;9.75;1.83;;;;;;;19.51;74.90;100924.59;4986593;28;20035;-70
2023/09/10 00:51:18;;;;;;;16.17;2.15;;;;;;;19.55;74.83;100925.84;4988400;28;20038;-70
2023/09/10 00:53:44;;;;;;;2.65;1.80;;;;;;;19.55;75.20;100925.84;4985800;28;20026;-70
2023/09/10 00:56:11;;;;;;;20.13;2.63;;;;;;;19.45;75.76;100922.69;4989773;28;20053;-70
2023/09/10 00:58:37;;;;;;;18.05;2.35;;;;;;;19.32;76.10;100923.41;4987980;28;20034;-70
2023/09/10 01:01:03;;;;;;;6.95;1.52;;;;;;;19.27;76.66;100928.44;4983521;28;20066;-70
2023/09/10 01:03:30;;;;;;;4.22;2.95;;;;;;;19.14;77.42;100930.97;4983348;28;20476;-70
2023/09/10 01:05:56;;;;;;;4.13;3.20;;;;;;;19.17;76.84;100925.31;4984572;28;20199;-70
2023/09/10 01:08:21;;;;;;;7.63;2.63;;;;;;;19.13;77.04;100921.41;4985026;28;20659;-70
2023/09/10 01:11:27;;;;;;;3.97;2.72;;;;;;;19.13;77.70;100919.56;4988285;28;20041;-70
2023/09/10 01:14:11;;;;;;;2.95;1.55;;;;;;;19.25;76.54;100919.88;4984289;28;20031;-70
2023/09/10 01:17:02;;;;;;;5.65;1.25;;;;;;;19.35;75.78;100912.47;4990792;28;20096;-71
2023/09/10 01:19:41;;;;;;;2.45;0.90;;;;;;;19.50;75.27;100907.88;4986877;28;20038;-70
2023/09/10 01:22:25;;;;;;;2.88;1.10;;;;;;;19.46;75.38;100911.09;4987635;28;20291;-71
2023/09/10 01:24:51;;;;;;;2.65;0.88;;;;;;;19.28;76.05;100908.94;4987482;28;20045;-71
2023/09/10 01:27:17;;;;;;;1.05;0.55;;;;;;;19.21;76.25;100900.16;4984449;28;20027;-71
2023/09/10 01:29:44;;;;;;;0.50;0.20;;;;;;;19.17;76.49;100893.59;4985095;28;20361;-70
2023/09/10 01:32:16;;;;;;;0.77;0.50;;;;;;;18.98;78.04;100899.50;4986784;28;20030;-70
2023/09/10 01:34:49;;;;;;;0.40;0.20;;;;;;;18.86;78.87;100896.59;4984921;28;20085;-70
2023/09/10 01:37:44;;;;;;;0.47;0.20;;;;;;;18.79;79.42;100900.97;4987888;28;20034;-70
2023/09/10 01:40:20;;;;;;;0.20;0.05;;;;;;;18.75;79.60;100905.00;4994374;28;20124;-70
2023/09/10 01:42:48;;;;;;;0.40;0.10;;;;;;;18.79;78.54;100904.44;4980035;28;20150;-70
2023/09/10 01:45:14;;;;;;;0.10;0.00;;;;;;;18.67;79.78;100908.56;4980983;28;20030;-69
2023/09/10 01:47:39;;;;;;;0.05;0.00;;;;;;;18.50;81.03;100907.09;4988050;28;20041;-70
2023/09/10 01:50:07;;;;;;;0.03;0.00;;;;;;;18.32;82.37;100906.69;4988114;28;20038;-70
2023/09/10 01:52:32;;;;;;;0.10;0.10;;;;;;;18.22;82.80;100904.34;4977177;28;20034;-70
2023/09/10 01:54:58;;;;;;;0.05;0.00;;;;;;;18.14;83.33;100907.91;4984307;28;20425;-70
2023/09/10 01:57:23;;;;;;;0.08;0.00;;;;;;;18.12;83.39;100901.97;4978558;28;20031;-70
2023/09/10 01:59:49;;;;;;;0.10;0.00;;;;;;;18.15;83.05;100904.25;4983366;28;20042;-70
2023/09/10 02:02:15;;;;;;;0.13;0.08;;;;;;;18.59;79.56;100911.28;4985994;28;20117;-70
2023/09/10 02:04:40;;;;;;;0.10;0.10;;;;;;;18.93;78.44;100904.53;4985043;28;20128;-71
2023/09/10 02:07:06;;;;;;;0.00;0.00;;;;;;;18.89;79.57;100904.94;4986900;28;20069;-70
2023/09/10 02:09:31;;;;;;;0.00;0.00;;;;;;;18.77;80.17;100906.44;4984612;28;20034;-70
2023/09/10 02:11:57;;;;;;;0.20;0.10;;;;;;;18.57;81.32;100903.53;4981431;28;20112;-70
2023/09/10 02:14:23;;;;;;;0.00;0.00;;;;;;;18.34;82.42;100905.53;4984030;28;20077;-70
2023/09/10 02:16:49;;;;;;;0.10;0.00;;;;;;;18.83;77.88;100900.41;4982473;28;20026;-70
2023/09/10 02:19:14;;;;;;;0.00;0.00;;;;;;;19.04;77.52;100898.75;4989980;28;20026;-70
2023/09/10 02:21:40;;;;;;;0.00;0.00;;;;;;;18.97;77.63;100896.06;4989377;28;20107;-70
2023/09/10 02:24:05;;;;;;;0.00;0.00;;;;;;;18.99;77.39;100893.22;4988220;28;20030;-71
2023/09/10 02:26:31;;;;;;;0.00;0.00;;;;;;;19.01;77.14;100899.97;4988400;28;20404;-71
2023/09/10 02:28:56;;;;;;;0.03;0.00;;;;;;;18.97;77.94;100896.06;4990337;28;20460;-70
2023/09/10 02:31:22;;;;;;;0.28;0.00;;;;;;;18.85;77.94;100887.84;4991368;28;20475;-70
2023/09/10 02:33:48;;;;;;;0.20;0.10;;;;;;;18.90;77.37;100889.94;4990643;28;20545;-70
2023/09/10 02:36:13;;;;;;;0.00;0.00;;;;;;;19.04;76.76;100886.38;4985368;28;20125;-70
2023/09/10 02:38:39;;;;;;;0.00;0.00;;;;;;;18.95;78.54;100882.22;4981725;28;20026;-71
2023/09/10 02:41:04;;;;;;;0.10;0.00;;;;;;;18.97;76.44;100885.50;4982865;28;20034;-70
2023/09/10 02:43:30;;;;;;;0.10;0.05;;;;;;;19.24;74.84;100881.28;4984334;28;20452;-70
2023/09/10 02:45:55;;;;;;;0.00;0.00;;;;;;;19.18;76.19;100888.13;4986788;28;20092;-70
2023/09/10 02:48:21;;;;;;;0.00;0.00;;;;;;;18.86;78.23;100886.84;4991711;28;20041;-70
2023/09/10 02:50:46;;;;;;;0.10;0.10;;;;;;;18.55;79.05;100894.19;4988675;28;20038;-71
2023/09/10 02:53:12;;;;;;;0.15;0.00;;;;;;;18.43;79.58;100893.84;4987596;28;20403;-70
2023/09/10 02:55:37;;;;;;;0.00;0.00;;;;;;;18.56;79.34;100893.19;4988981;28;20704;-70
2023/09/10 02:58:03;;;;;;;0.10;0.00;;;;;;;18.77;77.87;100885.31;4990952;28;20049;-71
2023/09/10 03:00:28;;;;;;;0.10;0.00;;;;;;;18.95;76.87;100891.97;4984879;28;20486;-70
2023/09/10 03:02:55;;;;;;;0.10;0.00;;;;;;;19.04;76.41;100885.56;4990866;28;20035;-70
2023/09/10 03:05:21;;;;;;;0.10;0.00;;;;;;;19.10;75.95;100890.09;4983852;28;20388;-71
2023/09/10 03:07:53;;;;;;;0.10;0.00;;;;;;;19.08;76.30;100886.81;4987766;28;20097;-70
2023/09/10 03:10:19;;;;;;;0.65;0.00;;;;;;;19.02;76.54;100885.75;4989896;28;20030;-70
2023/09/10 03:12:44;;;;;;;0.00;0.00;;;;;;;18.98;77.15;100892.41;4987372;28;20049;-70
2023/09/10 03:15:10;;;;;;;0.20;0.00;;;;;;;18.96;77.90;100894.41;4990341;28;20415;-71
2023/09/10 03:17:35;;;;;;;0.00;0.00;;;;;;;18.96;76.94;100886.50;4989615;28;20124;-70
2023/09/10 03:20:00;;;;;;;0.10;0.00;;;;;;;19.01;76.68;100889.41;4990919;28;20033;-70
2023/09/10 03:22:26;;;;;;;0.00;0.00;;;;;;;19.13;76.08;100892.34;4986041;28;20599;-70
2023/09/10 03:24:51;;;;;;;0.00;0.00;;;;;;;19.18;76.07;100892.59;4984842;28;20034;-70
2023/09/10 03:27:17;;;;;;;0.10;0.00;;;;;;;19.24;75.26;100894.47;4985920;28;20034;-70
2023/09/10 03:29:43;;;;;;;0.00;0.00;;;;;;;19.22;75.36;100899.97;4996039;28;20104;-70
2023/09/10 03:32:09;;;;;;;0.05;0.00;;;;;;;19.21;75.22;100897.50;4984197;28;20030;-70
2023/09/10 03:34:34;;;;;;;0.17;0.08;;;;;;;19.18;75.20;100893.41;4988743;28;20085;-70
2023/09/10 03:37:00;;;;;;;0.00;0.00;;;;;;;19.11;76.56;100903.09;4989198;28;20069;-71
2023/09/10 03:39:27;;;;;;;0.10;0.00;;;;;;;18.92;76.59;100892.34;4985255;28;20026;-70
2023/09/10 03:41:52;;;;;;;0.25;0.03;;;;;;;18.93;76.42;100891.34;4988194;28;20121;-70
2023/09/10 03:44:18;;;;;;;0.10;0.00;;;;;;;18.95;76.33;100894.59;4989819;28;20034;-70
2023/09/10 03:46:44;;;;;;;0.10;0.00;;;;;;;19.02;76.02;100884.94;4998515;28;20394;-70
2023/09/10 03:49:09;;;;;;;0.08;0.00;;;;;;;19.05;75.81;100879.28;4986520;28;20041;-71
2023/09/10 03:51:35;;;;;;;0.00;0.00;;;;;;;19.10;75.34;100879.53;4988664;28;20395;-71
2023/09/10 03:54:00;;;;;;;0.00;0.00;;;;;;;19.13;75.25;100881.78;4981238;28;20798;-71
2023/09/10 03:56:25;;;;;;;0.08;0.00;;;;;;;19.08;76.28;100876.25;4985322;28;20543;-71
2023/09/10 03:58:51;;;;;;;0.10;0.10;;;;;;;18.99;76.49;100869.47;4990987;28;20050;-70
2023/09/10 04:01:16;;;;;;;0.10;0.10;;;;;;;18.96;76.71;100872.47;4989158;28;20034;-70
2023/09/10 04:03:42;;;;;;;0.10;0.00;;;;;;;18.92;76.68;100873.88;4984072;28;20030;-70
2023/09/10 04:06:07;;;;;;;0.50;0.05;;;;;;;18.93;76.35;100883.41;4986634;28;20113;-70
2023/09/10 04:08:33;;;;;;;0.10;0.00;;;;;;;18.94;76.72;100880.59;4983832;28;20506;-70
2023/09/10 04:10:58;;;;;;;0.20;0.03;;;;;;;18.85;77.22;100881.75;4987048;28;20070;-70
2023/09/10 04:13:25;;;;;;;0.25;0.00;;;;;;;18.68;78.06;100875.88;4989698;28;20117;-71
2023/09/10 04:15:50;;;;;;;0.10;0.00;;;;;;;18.56;79.51;100877.34;4988410;28;20030;-70
2023/09/10 04:18:15;;;;;;;0.10;0.00;;;;;;;18.33;80.49;100876.69;4989558;28;20498;-71
2023/09/10 04:20:41;;;;;;;0.30;0.00;;;;;;;18.16;81.26;100871.63;4981849;28;20042;-70
2023/09/10 04:23:06;;;;;;;0.93;0.08;;;;;;;18.12;82.21;100880.88;4985585;28;20034;-70
2023/09/10 04:25:31;;;;;;;0.00;0.00;;;;;;;18.10;81.99;100880.25;4984499;28;20424;-70
2023/09/10 04:27:57;;;;;;;0.20;0.20;;;;;;;18.04;82.65;100880.16;4982745;28;20472;-70
2023/09/10 04:30:23;;;;;;;0.08;0.00;;;;;;;17.99;82.95;100878.06;5003048;28;20128;-70
2023/09/10 04:32:48;;;;;;;0.47;0.20;;;;;;;17.99;82.29;100882.53;4989497;28;20088;-70
2023/09/10 04:35:14;;;;;;;0.00;0.00;;;;;;;17.89;83.36;100875.75;4989062;28;20022;-70
2023/09/10 04:37:39;;;;;;;0.40;0.00;;;;;;;17.87;83.44;100877.75;4985272;28;20032;-70
2023/09/10 04:40:07;;;;;;;0.30;0.00;;;;;;;17.77;84.19;100882.47;4985388;28;20116;-70
2023/09/10 04:42:33;;;;;;;0.05;0.00;;;;;;;17.68;84.89;100877.44;4989092;28;20439;-70
2023/09/10 04:44:59;;;;;;;0.03;0.00;;;;;;;17.55;85.73;100881.47;4983884;28;20038;-70
2023/09/10 04:47:24;;;;;;;0.05;0.00;;;;;;;17.42;86.38;100880.50;4984550;28;20367;-70
2023/09/10 04:49:50;;;;;;;0.10;0.00;;;;;;;17.32;86.92;100877.28;4984474;28;20030;-70
2023/09/10 04:52:15;;;;;;;0.10;0.00;;;;;;;17.25;87.20;100885.06;4987247;28;20108;-70
2023/09/10 04:54:41;;;;;;;0.00;0.00;;;;;;;17.18;87.51;100884.97;4986852;28;20085;-70
2023/09/10 04:57:07;;;;;;;0.08;0.00;;;;;;;17.18;88.63;100895.50;4987386;28;20061;-69
2023/09/10 04:59:33;;;;;;;0.08;0.00;;;;;;;17.34;87.41;100884.00;4988472;28;20121;-69
2023/09/10 05:02:00;;;;;;;0.25;0.20;;;;;;;17.61;85.34;100889.66;4985521;28;20056;-70
2023/09/10 05:04:26;;;;;;;0.32;0.10;;;;;;;17.76;84.00;100885.28;4987645;28;20052;-70
2023/09/10 05:06:51;;;;;;;0.45;0.00;;;;;;;17.84;83.35;100898.38;4985414;28;20034;-70
2023/09/10 05:09:16;;;;;;;0.10;0.00;;;;;;;17.91;82.99;100896.66;4982533;28;20165;-69
2023/09/10 05:11:42;;;;;;;0.10;0.00;;;;;;;18.02;82.25;100897.97;4987661;28;20096;-70
2023/09/10 05:14:07;;;;;;;0.10;0.10;;;;;;;18.21;80.76;100894.81;4985810;28;20080;-70
2023/09/10 05:16:33;;;;;;;0.15;0.15;;;;;;;18.30;80.69;100892.88;4983642;28;20030;-69
2023/09/10 05:18:58;;;;;;;0.00;0.00;;;;;;;18.34;80.41;100899.44;4979584;28;20476;-70
2023/09/10 05:21:24;;;;;;;0.00;0.00;;;;;;;18.30;82.41;100892.88;4985793;28;20112;-70
2023/09/10 05:23:49;;;;;;;0.00;0.00;;;;;;;18.17;83.20;100904.91;4990487;28;20061;-67
2023/09/10 05:26:15;;;;;;;0.05;0.03;;;;;;;18.20;83.19;100909.81;4989306;28;20479;-67
2023/09/10 05:28:40;;;;;;;0.00;0.00;;;;;;;18.11;83.44;100904.81;4984757;28;20034;-67
2023/09/10 05:31:07;;;;;;;0.10;0.00;;;;;;;18.18;81.74;100911.81;4985651;28;20480;-67
2023/09/10 05:33:33;;;;;;;0.25;0.10;;;;;;;18.27;81.79;100904.63;4984910;28;20413;-67
2023/09/10 05:35:59;;;;;;;0.10;0.10;;;;;;;18.32;81.91;100906.69;4982875;28;20037;-67
2023/09/10 05:38:25;;;;;;;0.03;0.00;;;;;;;18.39;81.50;100907.59;4983171;28;20400;-67
2023/09/10 05:40:51;;;;;;;0.00;0.00;;;;;;;18.46;81.44;100919.84;4984174;28;20022;-67
2023/09/10 05:43:17;;;;;;;0.08;0.00;;;;;;;18.47;80.88;100916.22;4983822;28;20536;-69
2023/09/10 05:45:45;;;;;;;0.10;0.00;;;;;;;18.55;80.72;100912.66;4983968;28;20117;-69
2023/09/10 05:48:10;;;;;;;0.10;0.00;;;;;;;18.55;80.59;100917.94;4997570;28;20443;-70
2023/09/10 05:50:38;;;;;;;0.00;0.00;;;;;;;18.54;80.56;100909.19;4984961;28;20034;-69
2023/09/10 05:53:04;;;;;;;0.13;0.10;;;;;;;18.58;80.14;100912.28;4979052;28;20034;-70
2023/09/10 05:55:29;;;;;;;0.00;0.00;;;;;;;18.68;79.57;100915.47;4984608;28;20037;-70
2023/09/10 05:57:55;;;;;;;0.10;0.00;;;;;;;18.76;79.93;100910.09;4987754;28;20494;-70
2023/09/10 06:00:21;;;;;;;0.00;0.00;;;;;;;18.86;79.24;100912.41;4981340;28;20575;-71
2023/09/10 06:02:49;;;;;;;0.00;0.00;;;;;;;18.90;79.36;100909.19;4981858;28;20051;-71
2023/09/10 06:05:15;;;;;;;0.00;0.00;;;;;;;19.06;77.81;100902.84;4985315;28;20030;-71
2023/09/10 06:07:41;;;;;;;0.10;0.00;;;;;;;19.18;77.64;100903.97;4973217;28;20038;-71
2023/09/10 06:10:09;;;;;;;0.10;0.00;;;;;;;19.27;77.40;100899.38;4980207;28;20042;-68
2023/09/10 06:12:38;;;;;;;0.10;0.00;;;;;;;19.31;77.79;100903.28;4981362;28;20121;-68
2023/09/10 06:15:07;;;;;;;0.30;0.00;;;;;;;19.39;77.39;100903.13;4975787;28;20023;-71
2023/09/10 06:17:33;;;;;;;0.10;0.00;;;;;;;19.39;77.53;100902.31;4984718;28;20030;-71
2023/09/10 06:19:59;;;;;;;0.05;0.00;;;;;;;19.41;77.44;100901.09;4982083;28;20142;-71
2023/09/10 06:22:25;;;;;;;0.00;0.00;;;;;;;19.46;76.39;100901.34;4982233;28;20678;-71
2023/09/10 06:24:50;;;;;;;0.00;0.00;;;;;;;19.49;76.30;100900.16;4985930;28;20130;-71
2023/09/10 06:27:15;;;;;;;0.00;0.00;;;;;;;19.55;76.36;100900.22;4986106;28;20038;-70
2023/09/10 06:29:41;;;;;;;0.00;0.00;;;;;;;19.64;76.50;100903.56;4981898;28;20125;-70
2023/09/10 06:32:07;;;;;;;0.10;0.00;;;;;;;19.72;75.59;100900.75;4985452;28;20068;-71
2023/09/10 06:34:32;;;;;;;0.17;0.00;;;;;;;19.89;75.28;100899.41;4980648;28;20065;-69
2023/09/10 06:36:58;;;;;;;0.05;0.00;;;;;;;20.00;75.25;100905.19;4987360;28;20057;-72
2023/09/10 06:39:24;;;;;;;0.17;0.10;;;;;;;20.11;74.05;100904.63;4988192;28;20489;-73
2023/09/10 06:41:53;;;;;;;0.10;0.00;;;;;;;20.15;74.15;100905.88;4984488;28;20042;-72
2023/09/10 06:44:18;;;;;;;0.10;0.00;;;;;;;20.18;74.02;100908.13;4980985;28;20033;-72
2023/09/10 06:46:44;;;;;;;0.22;0.22;;;;;;;20.19;74.77;100909.75;4981169;28;20432;-71
2023/09/10 06:49:09;;;;;;;0.08;0.00;;;;;;;20.20;74.03;100904.28;4984610;28;20038;-71
2023/09/10 06:51:35;;;;;;;0.10;0.00;;;;;;;20.25;74.44;100905.53;4984770;28;20479;-71
2023/09/10 06:54:00;;;;;;;0.03;0.00;;;;;;;20.32;74.02;100907.16;4986734;28;20127;-71
2023/09/10 06:56:26;;;;;;;0.00;0.00;;;;;;;20.44;73.29;100895.03;4981532;28;20031;-72
2023/09/10 06:58:51;;;;;;;0.00;0.00;;;;;;;20.56;73.55;100897.91;4986970;28;20597;-71
2023/09/10 07:01:18;;;;;;;0.03;0.03;;;;;;;20.62;73.46;100899.78;4990759;28;20435;-71
2023/09/10 07:03:45;;;;;;;0.13;0.10;;;;;;;20.74;73.12;100898.19;4988833;28;20026;-71
2023/09/10 07:06:11;;;;;;;0.45;0.20;;;;;;;20.87;73.06;100900.00;4985481;28;20038;-71
2023/09/10 07:08:37;;;;;;;0.00;0.00;;;;;;;21.04;71.99;100892.50;4989032;28;20056;-71
2023/09/10 07:11:03;;;;;;;0.00;0.00;;;;;;;21.16;71.04;100906.78;4991660;28;20488;-71
2023/09/10 07:13:30;;;;;;;0.00;0.00;;;;;;;21.28;71.28;100907.00;4991097;28;20507;-71
2023/09/10 07:15:55;;;;;;;0.08;0.08;;;;;;;21.36;71.55;100904.97;4989487;28;20377;-71
2023/09/10 07:18:21;;;;;;;0.00;0.00;;;;;;;21.42;71.03;100913.94;4991088;28;20097;-71
2023/09/10 07:20:46;;;;;;;0.03;0.03;;;;;;;21.51;69.87;100918.00;4989573;28;20030;-72
2023/09/10 07:23:12;;;;;;;0.25;0.00;;;;;;;21.53;69.51;100911.50;4990346;28;20030;-72
2023/09/10 07:25:39;;;;;;;0.10;0.03;;;;;;;21.46;69.59;100907.22;4991113;28;20038;-72
2023/09/10 07:28:05;;;;;;;0.00;0.00;;;;;;;21.52;70.63;100909.84;4990806;28;20431;-71
2023/09/10 07:30:31;;;;;;;0.10;0.10;;;;;;;21.70;69.94;100911.88;4990470;28;20495;-72
2023/09/10 07:32:56;;;;;;;0.30;0.10;;;;;;;21.82;70.47;100912.84;4992178;28;20038;-71
2023/09/10 07:35:22;;;;;;;0.10;0.00;;;;;;;21.97;68.77;100920.59;4989002;28;20034;-72
2023/09/10 07:37:47;;;;;;;0.00;0.00;;;;;;;22.05;69.07;100915.09;4990756;28;20137;-72
2023/09/10 07:40:14;;;;;;;0.00;0.00;;;;;;;22.15;68.80;100912.00;4990738;28;20030;-71
2023/09/10 07:42:39;;;;;;;0.00;0.00;;;;;;;22.29;68.82;100918.06;4991057;28;20038;-71
2023/09/10 07:45:05;;;;;;;0.10;0.10;;;;;;;22.49;68.63;100916.13;4991068;28;20031;-71
2023/09/10 07:47:32;;;;;;;0.00;0.00;;;;;;;22.61;68.65;100927.72;4990717;28;20065;-71
2023/09/10 07:49:57;;;;;;;0.00;0.00;;;;;;;22.75;67.80;100912.50;4991976;28;20038;-71
2023/09/10 07:52:22;;;;;;;0.00;0.00;;;;;;;22.80;66.86;100913.53;4989439;28;20088;-71
2023/09/10 07:54:48;;;;;;;0.00;0.00;;;;;;;22.82;66.30;100911.47;4990058;28;20431;-70
2023/09/10 07:57:13;;;;;;;0.68;0.10;;;;;;;22.88;66.76;100914.31;4990378;28;20095;-71
2023/09/10 07:59:39;;;;;;;0.10;0.10;;;;;;;23.02;66.34;100911.34;4990949;28;20056;-72
2023/09/10 08:02:04;;;;;;;0.20;0.00;;;;;;;23.19;65.73;100914.28;4991675;28;20042;-72
2023/09/10 08:04:30;;;;;;;0.10;0.10;;;;;;;23.37;66.56;100913.53;4989039;28;20096;-71
2023/09/10 08:07:00;;;;;;;0.13;0.00;;;;;;;23.40;65.42;100911.25;4986841;28;20084;-71
2023/09/10 08:09:26;;;;;;;0.05;0.00;;;;;;;23.49;65.26;100901.97;4990019;28;20034;-71
2023/09/10 08:11:51;;;;;;;0.00;0.00;;;;;;;23.61;65.96;100915.41;4984837;28;20073;-72
2023/09/10 08:14:16;;;;;;;0.20;0.20;;;;;;;23.69;64.43;100911.63;4989076;28;20037;-67
2023/09/10 08:16:44;;;;;;;0.08;0.00;;;;;;;23.71;64.40;100912.22;4989570;28;20030;-67
2023/09/10 08:19:10;;;;;;;0.20;0.00;;;;;;;23.78;64.01;100916.44;4989500;28;20109;-67
2023/09/10 08:21:35;;;;;;;0.17;0.00;;;;;;;23.88;64.15;100915.94;4987071;28;20058;-67
2023/09/10 08:24:01;;;;;;;0.00;0.00;;;;;;;23.95;63.69;100918.53;4986015;28;20026;-67
2023/09/10 08:26:26;;;;;;;0.00;0.00;;;;;;;24.02;64.01;100917.41;4986175;28;20579;-68
2023/09/10 08:28:51;;;;;;;0.20;0.00;;;;;;;24.03;65.12;100912.91;4989829;28;20475;-67
2023/09/10 08:31:17;;;;;;;0.20;0.00;;;;;;;24.07;63.92;100916.75;4986575;28;20590;-67
2023/09/10 08:33:42;;;;;;;0.00;0.00;;;;;;;24.16;64.23;100918.06;4989830;28;20042;-68
2023/09/10 08:36:08;;;;;;;0.13;0.00;;;;;;;24.22;63.79;100913.69;4990471;28;20030;-67
2023/09/10 08:38:34;;;;;;;0.10;0.00;;;;;;;24.27;64.11;100920.00;4987032;28;20034;-67
2023/09/10 08:41:11;;;;;;;0.00;0.00;;;;;;;24.18;63.94;100916.00;4991200;28;20034;-67
2023/09/10 08:43:41;;;;;;;0.00;0.00;;;;;;;24.29;63.71;100912.63;4989163;28;20476;-67
2023/09/10 08:46:10;;;;;;;0.00;0.00;;;;;;;24.35;63.58;100916.22;4985934;28;20038;-67
2023/09/10 08:48:40;;;;;;;0.05;0.00;;;;;;;24.47;63.90;100911.78;4990539;28;20509;-67
2023/09/10 08:51:07;;;;;;;0.10;0.00;;;;;;;24.42;63.97;100912.44;4984845;28;20035;-67
2023/09/10 08:53:35;;;;;;;0.10;0.00;;;;;;;24.46;62.83;100912.81;4989527;28;20044;-67
2023/09/10 08:56:02;;;;;;;0.00;0.00;;;;;;;24.61;63.12;100917.72;4990610;28;20030;-67
2023/09/10 08:58:30;;;;;;;0.10;0.00;;;;;;;24.69;62.75;100912.91;4991483;28;20037;-67
2023/09/10 09:00:56;;;;;;;0.00;0.00;;;;;;;24.71;62.29;100913.47;4985726;28;20038;-67
2023/09/10 09:03:22;;;;;;;0.00;0.00;;;;;;;24.77;63.83;100917.91;4985384;28;20045;-67
2023/09/10 09:05:50;;;;;;;0.08;0.00;;;;;;;24.54;63.06;100911.69;4989384;28;20042;-67
2023/09/10 09:08:21;;;;;;;0.20;0.20;;;;;;;24.59;63.13;100922.47;4984032;28;20027;-67
2023/09/10 09:10:48;;;;;;;0.10;0.00;;;;;;;24.56;62.03;100917.63;4993523;28;20436;-67
2023/09/10 09:13:16;;;;;;;0.20;0.00;;;;;;;24.55;62.38;100911.47;4989147;28;20034;-67
2023/09/10 09:15:42;;;;;;;0.08;0.00;;;;;;;24.53;62.68;100912.72;4987153;28;20061;-67
2023/09/10 09:18:11;;;;;;;0.10;0.10;;;;;;;24.67;62.76;100906.97;4990019;28;20038;-66
2023/09/10 09:20:39;;;;;;;0.00;0.00;;;;;;;24.88;61.26;100905.66;4988868;28;20092;-67
2023/09/10 09:23:27;;;;;;;0.88;0.25;;;;;;;25.14;58.26;100909.78;4987537;28;20626;-67
2023/09/10 09:25:55;;;;;;;0.00;0.00;;;;;;;25.18;59.55;100910.13;4983732;28;20038;-67
2023/09/10 09:28:22;;;;;;;0.00;0.00;;;;;;;25.01;60.05;100910.03;4989260;28;20480;-67
2023/09/10 09:30:48;;;;;;;0.10;0.10;;;;;;;25.10;58.14;100906.75;4988418;28;20416;-67
2023/09/10 09:33:14;;;;;;;0.00;0.00;;;;;;;25.11;59.26;100904.91;4988772;28;20033;-67
2023/09/10 09:35:40;;;;;;;0.00;0.00;;;;;;;25.07;59.87;100901.06;4989246;28;20030;-67
2023/09/10 09:38:09;;;;;;;0.00;0.00;;;;;;;24.91;60.28;100901.72;4985938;28;20038;-67
2023/09/10 09:40:35;;;;;;;0.10;0.00;;;;;;;25.05;59.61;100905.81;4988707;28;20038;-67
2023/09/10 09:43:01;;;;;;;0.10;0.00;;;;;;;25.00;59.31;100900.41;4988505;28;20034;-67
2023/09/10 09:45:27;;;;;;;0.00;0.00;;;;;;;25.14;58.28;100891.94;4988908;28;20091;-67
2023/09/10 09:47:53;;;;;;;0.13;0.00;;;;;;;25.25;59.13;100889.53;4989265;28;20062;-67
2023/09/10 09:50:24;;;;;;;0.08;0.00;;;;;;;25.52;57.90;100885.34;4988120;28;20037;-67
2023/09/10 09:52:55;;;;;;;0.00;0.00;;;;;;;25.82;54.00;100881.75;4985160;28;20031;-67
2023/09/10 09:55:21;;;;;;;0.00;0.00;;;;;;;25.73;57.32;100883.97;4987182;28;20026;-67
2023/09/10 09:57:49;;;;;;;0.00;0.00;;;;;;;25.48;58.96;100880.72;4988048;28;20045;-67
2023/09/10 10:00:16;;;;;;;0.10;0.00;;;;;;;25.42;58.03;100882.47;4986676;28;20109;-67
2023/09/10 10:02:42;;;;;;;0.00;0.00;;;;;;;25.44;58.10;100886.53;4981812;28;20069;-67
2023/09/10 10:05:08;;;;;;;0.00;0.00;;;;;;;25.43;57.41;100871.56;4986555;28;20072;-67
2023/09/10 10:07:36;;;;;;;0.10;0.00;;;;;;;25.74;54.05;100874.91;4986864;28;20034;-67
2023/09/10 10:10:06;;;;;;;0.30;0.00;;;;;;;26.01;55.58;100875.19;4986885;28;20487;-67
2023/09/10 10:12:32;;;;;;;0.00;0.00;;;;;;;25.68;57.21;100873.19;4984273;28;20472;-67
2023/09/10 10:14:59;;;;;;;0.00;0.00;;;;;;;25.69;56.87;100869.47;4988519;28;20049;-67
2023/09/10 10:17:25;;;;;;;0.00;0.00;;;;;;;25.62;56.91;100869.56;4989103;28;20046;-67
2023/09/10 10:19:52;;;;;;;0.00;0.00;;;;;;;25.45;58.09;100871.31;4992734;28;20041;-67
2023/09/10 10:22:18;;;;;;;0.00;0.00;;;;;;;25.32;58.10;100874.22;4988164;28;20189;-67
2023/09/10 10:24:44;;;;;;;0.08;0.00;;;;;;;25.44;57.59;100873.19;4988924;28;20117;-67
2023/09/10 10:27:12;;;;;;;0.00;0.00;;;;;;;25.44;58.21;100869.69;4988949;28;20042;-67
2023/09/10 10:29:38;;;;;;;0.00;0.00;;;;;;;25.34;59.10;100867.59;4985799;28;20026;-67
2023/09/10 10:32:13;;;;;;;0.05;0.00;;;;;;;25.24;59.51;100862.03;4989794;28;20038;-67
2023/09/10 10:34:45;;;;;;;0.10;0.00;;;;;;;25.22;60.32;100863.31;4987958;28;20046;-66
2023/09/10 10:37:24;;;;;;;0.90;0.00;;;;;;;25.20;60.22;100860.88;4982362;28;20281;-66
2023/09/10 10:40:11;;;;;;;0.30;0.10;;;;;;;25.50;57.26;100862.63;4984209;28;20169;-66
2023/09/10 10:43:03;;;;;;;0.50;0.00;;;;;;;25.59;55.39;100869.22;4991864;28;20042;-66
2023/09/10 10:45:31;;;;;;;0.00;0.00;;;;;;;26.08;53.16;100866.00;4981725;28;20034;-67
2023/09/10 10:47:59;;;;;;;0.00;0.00;;;;;;;26.28;53.83;100867.44;4991742;28;20073;-66
2023/09/10 10:50:27;;;;;;;0.10;0.10;;;;;;;26.08;53.67;100868.66;4987793;28;20117;-66
2023/09/10 10:52:59;;;;;;;0.00;0.00;;;;;;;25.91;54.52;100867.81;4990867;28;20117;-66
2023/09/10 10:55:26;;;;;;;0.10;0.08;;;;;;;25.98;54.69;100865.00;4989355;28;20045;-66
2023/09/10 10:57:53;;;;;;;0.20;0.00;;;;;;;25.78;54.39;100858.19;4989914;28;20038;-66
2023/09/10 11:00:20;;;;;;;0.00;0.00;;;;;;;25.82;54.97;100858.53;4990913;28;20026;-66
2023/09/10 11:02:49;;;;;;;0.00;0.00;;;;;;;25.88;53.97;100857.59;4985641;28;20049;-66
2023/09/10 11:05:15;;;;;;;0.00;0.00;;;;;;;25.80;53.18;100855.28;4992409;28;20045;-66
2023/09/10 11:07:40;;;;;;;0.00;0.00;;;;;;;26.19;50.13;100855.53;4991631;28;20034;-66
2023/09/10 11:10:24;;;;;;;0.00;0.00;;;;;;;26.35;50.61;100860.16;4991712;28;20053;-66
2023/09/10 11:13:09;;;;;;;0.00;0.00;;;;;;;26.47;51.53;100850.19;4991037;28;20081;-64
2023/09/10 11:15:35;;;;;;;0.20;0.00;;;;;;;26.38;52.89;100851.66;4990604;28;20034;-66
2023/09/10 11:18:34;;;;;;;0.15;0.10;;;;;;;26.48;52.36;100851.81;4991359;28;20503;-68
2023/09/10 11:21:02;;;;;;;0.00;0.00;;;;;;;26.46;53.44;100845.94;4991307;28;20043;-68
2023/09/10 11:23:27;;;;;;;0.03;0.00;;;;;;;26.56;52.79;100846.09;4986577;28;20026;-68